Main page
METAR-TAF:

METAR-TAF

Airports :

King Fahd International Airport

Dammam, Saudi Arabia

latitude: 26-28N, longitude: 049-47E, elevation: 22 m

Current weather observation

The report was made 1 hour and 3 minutes ago, at 23:00 UTC
Wind 7 kt from the South/Southwest
Temperature 27°C
Humidity 34%
Pressure 1007 hPa
Visibility 10 km or more
no clouds below 1500 m and no cumulonimbus

METAR: OEDF 222300Z 21007KT CAVOK 27/10 Q1007 NOSIG

Time: 03:03 (00:03 UTC)

Forecast

The report was made 3 hours and 33 minutes ago, at 20:30 UTC
Forecast valid from 23 at 00 UTC to 24 at 06 UTC
Wind 4 kt from variable directions
Visibility: 8000 m
Becoming
from 23 at 02 UTC to 23 at 04 UTC
Wind 10 kt from the West
Becoming
from 23 at 12 UTC to 23 at 14 UTC
Wind 18 kt from the North
Visibility: 6000 m

TAF: OEDF 222030Z 2300/2406 VRB04KT 8000 NSC BECMG 2302/2304 26010KT BECMG 2312/2314 36018KT 6000

Weather observations and forecasts of more than 4000 airports (METAR and TAF reports).

The available stations are represented by yellow and red dots on the map.

Hover mouse over dot to see the name of the station.

Then click to see weather observations and forecasts.

To change the map : click on the green buttons with a black cross to zoom in, on the green button with a dash to zoom out, or on the green arrows for adjacent maps.


METAR-TAF: